Time;durP1;ratioP1;P1;durP2;ratioP2;P2;SDS_P1;SDS_P2;PMS_P1;PMS_P2;Temp;Humidity;BMP_temperature;BMP_pressure;BME280_temperature;BME280_humidity;BME280_pressure;Samples;Min_cycle;Max_cycle;Signal;HPM_P1;HPM_P2
2021/12/07 00:01:08;;;;;;;13.57;11.23;;;;;;;2.24;83.35;100105.19;5040914;28;20199;-77
2021/12/07 00:03:35;;;;;;;15.53;12.13;;;;;;;2.24;83.25;100118.06;5040717;28;20197;-78
2021/12/07 00:06:01;;;;;;;14.20;11.40;;;;;;;2.26;83.19;100112.13;5041073;28;20248;-77
2021/12/07 00:08:28;;;;;;;15.47;11.33;;;;;;;2.26;83.38;100113.81;5038478;28;20571;-77
2021/12/07 00:10:55;;;;;;;14.10;12.70;;;;;;;2.17;83.86;100107.72;5038436;28;20225;-77
2021/12/07 00:13:24;;;;;;;13.77;11.93;;;;;;;2.18;83.78;100096.59;5038754;28;20205;-76
2021/12/07 00:15:51;;;;;;;14.67;10.90;;;;;;;2.17;83.10;100099.13;5039908;28;20317;-77
2021/12/07 00:18:17;;;;;;;15.07;10.53;;;;;;;2.21;83.28;100100.03;5039652;28;20263;-77
2021/12/07 00:20:44;;;;;;;13.80;11.63;;;;;;;2.14;83.55;100081.06;5039259;28;20260;-77
2021/12/07 00:23:11;;;;;;;13.63;11.00;;;;;;;2.16;83.33;100085.41;5039192;28;20826;-77
2021/12/07 00:25:38;;;;;;;12.10;10.80;;;;;;;2.18;82.92;100085.41;5038328;28;20244;-77
2021/12/07 00:28:05;;;;;;;11.80;10.50;;;;;;;2.15;83.66;100083.66;5040674;28;20198;-77
2021/12/07 00:30:35;;;;;;;11.83;10.17;;;;;;;2.18;82.99;100082.81;5040385;28;20198;-76
2021/12/07 00:33:15;;;;;;;12.00;10.37;;;;;;;2.18;82.91;100088.88;5041517;28;20276;-77
2021/12/07 00:35:42;;;;;;;10.67;8.87;;;;;;;2.11;82.75;100086.22;5041360;28;20633;-77
2021/12/07 00:38:15;;;;;;;11.30;10.07;;;;;;;2.13;83.41;100077.66;5040968;28;20198;-77
2021/12/07 00:40:43;;;;;;;11.03;9.90;;;;;;;2.15;82.71;100087.97;5041779;28;20194;-77
2021/12/07 00:43:10;;;;;;;13.13;10.40;;;;;;;2.18;83.16;100093.13;5039972;28;20206;-77
2021/12/07 00:45:39;;;;;;;11.63;10.10;;;;;;;2.15;82.66;100080.25;5042373;28;20218;-77
2021/12/07 00:48:07;;;;;;;11.73;10.63;;;;;;;2.17;82.43;100081.13;5041923;28;20669;-77
2021/12/07 00:50:35;;;;;;;12.30;10.90;;;;;;;2.16;82.98;100076.81;5040590;28;20198;-77
2021/12/07 00:53:05;;;;;;;10.93;9.80;;;;;;;2.12;82.63;100078.50;5041613;28;20206;-77
2021/12/07 00:55:34;;;;;;;11.10;10.00;;;;;;;2.10;82.33;100080.22;5039793;28;20221;-77
2021/12/07 00:58:07;;;;;;;10.83;9.73;;;;;;;2.08;83.46;100063.88;5041338;28;20884;-77
2021/12/07 01:00:33;;;;;;;11.87;9.67;;;;;;;2.09;83.50;100055.28;5040137;28;20853;-77
2021/12/07 01:03:01;;;;;;;10.43;9.40;;;;;;;2.10;83.18;100051.00;5041135;28;20197;-77
2021/12/07 01:05:31;;;;;;;12.83;9.90;;;;;;;2.11;83.40;100061.31;5066320;22;20274;-79
2021/12/07 01:27:06;;;;;;;9.63;8.73;;;;;;;2.22;82.32;100081.16;5052994;28;20266;-79
2021/12/07 01:29:33;;;;;;;10.03;9.03;;;;;;;2.23;82.76;100085.47;5053125;28;20208;-79
2021/12/07 01:32:10;;;;;;;10.80;9.70;;;;;;;2.25;82.28;100087.19;5053000;28;20209;-79
2021/12/07 01:35:10;;;;;;;10.53;9.43;;;;;;;2.27;82.52;100075.19;5052846;28;20260;-79
2021/12/07 01:37:50;;;;;;;10.97;9.60;;;;;;;2.24;82.41;100075.19;5053125;28;20209;-79
2021/12/07 01:43:38;;;;;;;11.67;9.23;;;;;;;2.20;82.10;100068.28;4990574;28;20195;-78
2021/12/07 01:46:44;;;;;;;10.67;8.83;;;;;;;2.20;82.21;100076.00;5048620;28;20268;-78
2021/12/07 01:52:26;;;;;;;9.93;9.00;;;;;;;2.27;82.51;100077.78;5052990;28;20311;-79
2021/12/07 01:58:06;;;;;;;10.70;9.60;;;;;;;2.29;82.51;100085.53;5052949;28;20240;-79
2021/12/07 02:00:37;;;;;;;9.70;8.70;;;;;;;2.30;82.15;100092.38;5053162;28;20223;-80
2021/12/07 02:03:04;;;;;;;13.17;9.50;;;;;;;2.30;82.32;100085.53;5051933;28;20598;-79
2021/12/07 02:05:31;;;;;;;9.80;8.83;;;;;;;2.29;81.80;100096.69;5052836;28;20233;-79
2021/12/07 02:07:59;;;;;;;12.80;8.93;;;;;;;2.33;82.17;100093.28;5053192;28;20210;-79
2021/12/07 02:10:29;;;;;;;9.73;8.73;;;;;;;2.33;82.46;100084.69;5053138;28;20259;-80
2021/12/07 02:13:02;;;;;;;10.40;9.30;;;;;;;2.25;82.14;100084.63;5052146;28;20212;-79
2021/12/07 02:15:29;;;;;;;9.37;8.20;;;;;;;2.25;82.40;100073.47;5055603;28;20225;-79
2021/12/07 02:17:56;;;;;;;8.87;8.07;;;;;;;2.17;83.24;100065.66;5056792;28;20202;-79
2021/12/07 02:20:25;;;;;;;9.83;8.80;;;;;;;2.12;83.04;100059.59;5056790;28;20263;-79
2021/12/07 02:22:53;;;;;;;10.43;9.33;;;;;;;2.19;82.55;100054.53;5056366;28;20573;-80
2021/12/07 02:25:20;;;;;;;9.07;8.20;;;;;;;2.23;83.46;100045.13;5056414;28;20244;-79
2021/12/07 02:27:48;;;;;;;10.63;9.57;;;;;;;2.26;83.58;100039.13;5056647;28;20205;-79
2021/12/07 02:30:19;;;;;;;11.00;9.90;;;;;;;2.28;82.66;100051.19;5055238;28;20214;-78
2021/12/07 02:32:47;;;;;;;9.43;8.53;;;;;;;2.35;83.23;100059.81;5054912;28;20190;-79
2021/12/07 02:35:21;;;;;;;9.73;8.83;;;;;;;2.30;82.79;100054.63;5055056;28;20711;-79
2021/12/07 02:37:48;;;;;;;9.97;8.97;;;;;;;2.37;82.62;100069.28;5054981;28;20197;-79
2021/12/07 02:40:16;;;;;;;10.73;9.30;;;;;;;2.44;83.08;100062.47;5054890;28;20205;-78
2021/12/07 02:42:42;;;;;;;13.03;9.73;;;;;;;2.49;82.11;100078.81;5055161;28;20251;-79
2021/12/07 02:45:09;;;;;;;10.17;8.80;;;;;;;2.44;82.66;100077.03;5054459;28;20672;-79
2021/12/07 02:47:36;;;;;;;10.00;9.00;;;;;;;2.41;82.81;100062.44;5054820;28;20205;-80
2021/12/07 02:50:04;;;;;;;11.57;9.87;;;;;;;2.46;82.89;100062.47;5055715;28;20261;-79
2021/12/07 02:52:30;;;;;;;11.17;9.80;;;;;;;2.39;82.65;100066.72;5068320;28;20514;-78
2021/12/07 02:54:56;;;;;;;11.13;10.00;;;;;;;2.33;83.07;100059.78;5075165;28;20228;-78
2021/12/07 02:57:24;;;;;;;11.30;10.20;;;;;;;2.29;82.41;100063.19;5074604;28;20205;-78
2021/12/07 02:59:58;;;;;;;10.67;9.60;;;;;;;2.37;83.82;100048.66;5074423;28;20205;-77
2021/12/07 03:02:25;;;;;;;12.10;10.80;;;;;;;2.30;83.62;100036.59;5055367;28;20189;-77
2021/12/07 03:05:00;;;;;;;11.40;10.30;;;;;;;2.33;84.80;100000.56;5054558;28;20213;-77
2021/12/07 03:07:42;;;;;;;13.37;11.10;;;;;;;2.38;84.82;99990.31;5054908;28;20193;-78
2021/12/07 03:26:33;;;;;;;12.97;11.07;;;;;;;2.46;85.86;99931.09;5053172;28;20270;-77
2021/12/07 03:29:02;;;;;;;12.23;10.83;;;;;;;2.51;86.41;99947.44;5053549;28;20251;-77
2021/12/07 03:31:29;;;;;;;12.40;11.10;;;;;;;2.52;85.55;99950.03;5053712;28;20297;-77
2021/12/07 03:33:57;;;;;;;12.03;10.73;;;;;;;2.56;85.46;99966.38;5053617;28;20213;-78
2021/12/07 03:36:25;;;;;;;12.13;11.03;;;;;;;2.60;84.87;99973.28;5053473;28;20719;-78
2021/12/07 03:38:51;;;;;;;12.23;11.03;;;;;;;2.59;84.99;99966.38;5053957;28;20201;-78
2021/12/07 03:41:18;;;;;;;11.40;10.37;;;;;;;2.63;85.24;99981.00;5053607;28;20218;-78
2021/12/07 03:43:45;;;;;;;12.43;10.83;;;;;;;2.67;84.78;99981.91;5053259;28;20672;-78
2021/12/07 03:46:14;;;;;;;12.13;10.90;;;;;;;2.68;85.02;99987.06;5053597;28;20294;-78
2021/12/07 03:48:41;;;;;;;11.20;10.10;;;;;;;2.69;84.66;100005.94;5053800;28;20206;-78
2021/12/07 03:51:08;;;;;;;12.67;11.00;;;;;;;2.66;84.67;99999.06;5053246;28;20278;-78
2021/12/07 03:53:35;;;;;;;11.43;10.17;;;;;;;2.65;85.05;99987.03;5052991;28;20256;-77
2021/12/07 03:56:03;;;;;;;11.77;10.60;;;;;;;2.65;84.87;99984.44;5053403;28;20225;-78
2021/12/07 03:58:30;;;;;;;11.43;10.23;;;;;;;2.68;85.71;99976.75;5053431;28;20243;-78
2021/12/07 04:00:56;;;;;;;10.97;9.83;;;;;;;2.75;85.22;99975.06;5053323;28;20647;-79
2021/12/07 04:03:24;;;;;;;12.73;10.23;;;;;;;2.71;85.15;99989.63;5052890;28;20681;-78
2021/12/07 04:05:54;;;;;;;11.07;9.97;;;;;;;2.62;85.26;99984.44;5052809;28;20241;-77
2021/12/07 04:08:23;;;;;;;10.87;9.87;;;;;;;2.64;84.98;99989.63;5053187;28;20208;-78
2021/12/07 04:10:50;;;;;;;10.80;9.70;;;;;;;2.66;84.69;99993.06;5049361;28;20263;-78
2021/12/07 04:13:16;;;;;;;11.50;10.40;;;;;;;2.65;84.66;99999.06;5048906;28;20563;-77
2021/12/07 04:15:43;;;;;;;13.33;10.80;;;;;;;2.61;84.50;100003.31;5052790;28;20221;-78
2021/12/07 04:18:10;;;;;;;11.13;10.10;;;;;;;2.58;85.00;99996.44;5052706;28;20205;-79
2021/12/07 04:20:40;;;;;;;11.63;10.53;;;;;;;2.52;84.92;100008.44;5053213;28;20636;-77
2021/12/07 04:23:07;;;;;;;11.07;10.00;;;;;;;2.51;85.18;99992.09;5052717;28;20190;-77
2021/12/07 04:25:36;;;;;;;10.60;9.57;;;;;;;2.36;84.74;100008.31;5052753;28;20218;-77
2021/12/07 04:28:04;;;;;;;11.20;10.00;;;;;;;2.45;85.66;99996.34;5052516;28;20680;-77
2021/12/07 04:30:33;;;;;;;11.10;10.00;;;;;;;2.34;85.86;99988.56;5052683;28;20201;-78
2021/12/07 04:33:00;;;;;;;11.53;10.40;;;;;;;2.34;86.22;99957.66;5052305;28;20209;-78
2021/12/07 04:35:27;;;;;;;11.13;10.07;;;;;;;2.35;86.39;99964.53;5052663;28;20227;-78
2021/12/07 04:37:56;;;;;;;12.33;11.03;;;;;;;2.32;86.95;99952.50;5052071;28;20259;-77
2021/12/07 04:40:31;;;;;;;12.03;10.83;;;;;;;2.37;86.74;99934.50;5052699;28;20270;-77
2021/12/07 04:42:59;;;;;;;10.93;9.93;;;;;;;2.41;86.78;99932.78;5045461;28;20255;-77
2021/12/07 04:45:34;;;;;;;12.70;11.37;;;;;;;2.44;86.97;99933.69;5052459;28;20226;-77
2021/12/07 04:48:23;;;;;;;11.33;10.23;;;;;;;2.38;86.68;99939.66;5052379;28;20202;-78
2021/12/07 04:59:12;;;;;;;12.30;11.10;;;;;;;2.49;87.70;99926.81;5052815;28;20657;-78
2021/12/07 05:01:39;;;;;;;12.47;11.23;;;;;;;2.51;87.90;99924.25;5052606;28;20234;-78
2021/12/07 05:04:11;;;;;;;12.10;10.70;;;;;;;2.50;87.70;99918.25;5052674;28;20201;-79
2021/12/07 05:06:42;;;;;;;11.83;10.70;;;;;;;2.53;87.74;99922.56;5052491;28;20300;-78
2021/12/07 05:09:28;;;;;;;12.00;10.90;;;;;;;2.54;88.09;99914.84;5052722;28;20296;-78
2021/12/07 05:12:17;;;;;;;12.53;11.23;;;;;;;2.55;88.25;99913.97;5052657;28;20198;-78
2021/12/07 05:14:44;;;;;;;12.10;10.80;;;;;;;2.57;88.17;99906.25;5052213;28;20202;-78
2021/12/07 05:17:20;;;;;;;12.17;11.07;;;;;;;2.52;88.01;99906.25;5052249;28;20728;-78
2021/12/07 05:25:41;;;;;;;12.23;11.10;;;;;;;2.58;87.03;99955.22;5052073;28;20248;-78
2021/12/07 05:39:06;;;;;;;10.87;9.87;;;;;;;2.60;86.88;99955.25;5052257;28;20232;-77
2021/12/07 05:41:34;;;;;;;11.37;10.17;;;;;;;2.63;86.49;99962.97;5052576;28;20244;-77
2021/12/07 05:44:00;;;;;;;12.40;11.23;;;;;;;2.59;87.46;99953.50;5052510;28;20605;-78
2021/12/07 05:46:26;;;;;;;12.37;11.07;;;;;;;2.58;87.57;99955.22;5052297;28;20217;-80
2021/12/07 05:48:53;;;;;;;12.10;11.00;;;;;;;2.61;87.21;99961.25;5052757;28;20263;-78
2021/12/07 05:51:19;;;;;;;11.90;10.80;;;;;;;2.62;87.31;99960.38;5056419;28;20209;-78
2021/12/07 05:53:45;;;;;;;10.97;10.07;;;;;;;2.63;87.41;99964.69;5056323;28;20281;-79
2021/12/07 05:56:12;;;;;;;12.53;11.23;;;;;;;2.64;87.09;99971.59;5058375;28;20235;-78
2021/12/07 05:58:40;;;;;;;11.23;10.17;;;;;;;2.62;86.80;99978.41;5056116;28;20216;-77
2021/12/07 06:01:06;;;;;;;11.80;10.70;;;;;;;2.59;86.60;99990.44;5055924;28;20275;-79
2021/12/07 06:03:34;;;;;;;11.83;10.73;;;;;;;2.57;86.25;99999.88;5055527;28;20198;-78
2021/12/07 06:06:03;;;;;;;12.73;11.63;;;;;;;2.65;87.07;100002.50;5055414;28;20226;-78
2021/12/07 06:08:30;;;;;;;11.73;10.53;;;;;;;2.65;86.34;100011.94;5055779;28;20216;-78
2021/12/07 06:10:56;;;;;;;11.90;10.80;;;;;;;2.65;86.43;100012.78;5055332;28;20215;-78
2021/12/07 06:13:23;;;;;;;11.20;10.13;;;;;;;2.70;86.53;100013.69;5055285;28;20202;-79
2021/12/07 06:15:51;;;;;;;11.10;10.10;;;;;;;2.65;86.25;100038.56;5055831;28;20283;-78
2021/12/07 06:18:18;;;;;;;12.07;10.97;;;;;;;2.65;86.71;100028.25;5056116;28;20209;-78
2021/12/07 06:20:44;;;;;;;11.20;10.07;;;;;;;2.67;86.61;100023.97;5055094;28;20202;-77
2021/12/07 06:23:11;;;;;;;11.30;10.20;;;;;;;2.69;87.10;100009.38;5050860;28;20586;-78
2021/12/07 06:25:38;;;;;;;10.13;9.23;;;;;;;2.75;86.09;100021.44;5054025;28;20719;-78
2021/12/07 06:28:05;;;;;;;12.70;11.50;;;;;;;2.73;86.08;100038.63;5054951;28;20210;-77
2021/12/07 06:30:31;;;;;;;11.27;10.37;;;;;;;2.75;85.87;100036.91;5054902;28;20282;-77
2021/12/07 06:32:59;;;;;;;10.97;9.97;;;;;;;2.75;86.14;100055.81;5054797;28;20206;-77
2021/12/07 06:35:26;;;;;;;11.17;10.10;;;;;;;2.77;86.38;100055.81;5054195;28;20777;-79
2021/12/07 06:37:52;;;;;;;10.00;9.00;;;;;;;2.70;85.39;100070.41;5054642;28;20284;-77
2021/12/07 06:40:19;;;;;;;10.80;9.83;;;;;;;2.56;85.53;100083.19;5054919;28;20215;-79
2021/12/07 06:42:45;;;;;;;11.57;10.47;;;;;;;2.56;85.67;100087.47;5054558;28;20287;-78
2021/12/07 06:45:12;;;;;;;10.83;9.73;;;;;;;2.61;85.74;100090.94;5054543;28;20205;-79
2021/12/07 06:47:40;;;;;;;10.80;9.80;;;;;;;2.65;85.81;100090.09;5054705;28;20737;-78
2021/12/07 06:50:10;;;;;;;11.03;9.83;;;;;;;2.69;86.02;100084.13;5054641;28;20256;-78
2021/12/07 06:52:37;;;;;;;10.80;9.80;;;;;;;2.67;85.67;100078.09;5055113;28;20198;-78
2021/12/07 06:55:03;;;;;;;11.10;9.73;;;;;;;2.72;86.02;100081.56;5054269;28;20199;-78
2021/12/07 06:57:30;;;;;;;11.60;10.50;;;;;;;2.70;85.61;100088.44;5053512;28;21134;-78
2021/12/07 06:59:56;;;;;;;10.53;9.63;;;;;;;2.73;85.72;100101.31;5054460;28;20205;-78
2021/12/07 07:02:22;;;;;;;10.50;9.53;;;;;;;2.71;86.38;100095.28;5054090;28;20207;-80
2021/12/07 07:04:49;;;;;;;10.63;9.70;;;;;;;2.71;86.06;100081.56;5054763;28;20213;-79
2021/12/07 07:07:18;;;;;;;11.83;10.13;;;;;;;2.66;86.22;100091.84;5086884;22;20240;-75
2021/12/07 07:09:45;;;;;;;11.23;10.23;;;;;;;2.65;86.85;100090.09;5056122;28;20654;-75
2021/12/07 07:12:11;;;;;;;8.97;8.10;;;;;;;2.65;86.76;100087.53;5053176;28;20217;-76
2021/12/07 07:14:37;;;;;;;10.90;9.17;;;;;;;2.62;87.00;100095.25;5053875;28;20259;-77
2021/12/07 07:17:04;;;;;;;10.50;9.40;;;;;;;2.62;86.63;100087.50;5053570;28;20230;-75
2021/12/07 07:19:31;;;;;;;11.23;10.23;;;;;;;2.66;87.35;100091.00;5053682;28;20765;-77
2021/12/07 07:22:01;;;;;;;10.10;9.20;;;;;;;2.67;87.41;100088.41;5053726;28;20217;-77
2021/12/07 07:24:28;;;;;;;10.03;9.13;;;;;;;2.63;87.68;100078.91;5067013;28;20206;-77
2021/12/07 07:26:55;;;;;;;10.07;9.10;;;;;;;2.64;87.39;100082.38;5067345;28;20221;-76
2021/12/07 07:29:21;;;;;;;12.20;10.83;;;;;;;2.70;87.45;100080.69;5073857;28;20206;-76
2021/12/07 07:31:47;;;;;;;10.13;9.23;;;;;;;2.57;86.90;100102.06;5073964;28;20262;-77
2021/12/07 07:34:14;;;;;;;10.17;9.27;;;;;;;2.66;87.03;100098.72;5073789;28;20281;-77
2021/12/07 07:36:40;;;;;;;9.57;8.77;;;;;;;2.69;87.47;100093.56;5073203;28;20225;-77
2021/12/07 07:39:07;;;;;;;9.87;8.97;;;;;;;2.66;88.29;100075.53;5073528;28;20635;-76
2021/12/07 07:41:34;;;;;;;9.87;8.97;;;;;;;2.63;87.68;100076.34;5073134;28;20274;-76
2021/12/07 07:44:01;;;;;;;9.53;8.67;;;;;;;2.66;87.70;100088.41;5071595;28;20209;-76
2021/12/07 07:46:27;;;;;;;8.83;8.03;;;;;;;2.71;87.55;100087.56;5073251;28;20298;-76
2021/12/07 07:48:53;;;;;;;9.90;9.10;;;;;;;2.54;86.97;100110.63;5072894;28;20258;-76
2021/12/07 07:51:20;;;;;;;9.23;8.00;;;;;;;2.57;87.58;100102.91;5072690;28;20204;-76
2021/12/07 07:53:48;;;;;;;8.40;7.53;;;;;;;2.66;87.49;100099.56;5072413;28;20197;-75
2021/12/07 07:56:14;;;;;;;10.43;9.53;;;;;;;2.63;87.48;100115.00;5063770;28;20928;-78
2021/12/07 07:58:42;;;;;;;8.80;8.00;;;;;;;2.66;86.94;100121.91;5073376;28;20616;-75
2021/12/07 08:01:09;;;;;;;9.20;8.30;;;;;;;2.65;87.45;100117.59;5072586;28;20746;-77
2021/12/07 08:03:36;;;;;;;9.43;8.53;;;;;;;2.66;87.17;100116.75;5072490;28;20209;-76
2021/12/07 08:06:02;;;;;;;8.47;7.77;;;;;;;2.67;86.98;100121.03;5071915;28;20234;-77
2021/12/07 08:08:29;;;;;;;8.60;7.80;;;;;;;2.62;86.78;100133.00;5070792;28;20258;-75
2021/12/07 08:10:55;;;;;;;9.40;8.00;;;;;;;2.54;87.14;100136.41;5072545;28;20202;-77
2021/12/07 08:13:22;;;;;;;8.77;8.07;;;;;;;2.55;87.50;100119.22;5063957;28;20254;-74
2021/12/07 08:15:50;;;;;;;8.53;7.77;;;;;;;2.56;87.54;100108.09;5063510;28;20279;-76
2021/12/07 08:18:17;;;;;;;9.20;8.40;;;;;;;2.46;87.86;100120.03;5071812;28;20287;-76
2021/12/07 08:20:44;;;;;;;9.30;8.50;;;;;;;2.54;87.65;100100.34;5071998;28;20211;-75
2021/12/07 08:23:11;;;;;;;9.80;8.90;;;;;;;2.52;87.88;100120.06;5071793;28;20217;-76
2021/12/07 08:25:41;;;;;;;9.37;8.50;;;;;;;2.57;87.91;100114.94;5063129;28;20254;-76
2021/12/07 08:28:09;;;;;;;14.07;12.87;;;;;;;2.55;87.71;100114.94;5071313;28;21008;-76
2021/12/07 08:30:35;;;;;;;10.07;9.07;;;;;;;2.55;88.56;100117.50;5071587;28;20204;-76
2021/12/07 08:33:03;;;;;;;9.27;8.47;;;;;;;2.47;88.47;100113.16;5071104;28;20242;-76
2021/12/07 08:35:30;;;;;;;9.13;8.37;;;;;;;2.50;87.95;100106.31;5071515;28;20208;-76
2021/12/07 08:37:56;;;;;;;10.07;9.17;;;;;;;2.54;88.69;100122.66;5071807;28;20224;-76
2021/12/07 08:40:28;;;;;;;9.73;8.90;;;;;;;2.53;88.45;100119.19;5072124;28;20295;-78
2021/12/07 08:42:56;;;;;;;9.10;8.30;;;;;;;2.47;87.83;100121.72;5072599;28;20219;-76
2021/12/07 08:45:23;;;;;;;9.00;8.20;;;;;;;2.54;87.74;100123.53;5071224;28;20209;-76
2021/12/07 08:47:50;;;;;;;8.40;7.70;;;;;;;2.50;87.89;100123.50;5071488;28;20234;-76
2021/12/07 08:50:21;;;;;;;9.87;8.77;;;;;;;2.54;88.35;100126.09;5071272;28;20213;-76
2021/12/07 08:52:48;;;;;;;14.00;12.80;;;;;;;2.42;88.19;100131.16;5065568;28;20194;-76
2021/12/07 09:00:45;;;;;;;8.53;7.77;;;;;;;2.53;88.68;100114.06;5070300;28;20213;-76
2021/12/07 09:03:11;;;;;;;8.20;7.40;;;;;;;2.56;88.72;100113.25;5074235;28;20204;-77
2021/12/07 09:05:39;;;;;;;8.57;7.77;;;;;;;2.47;88.12;100120.88;5072924;28;20219;-76
2021/12/07 09:08:06;;;;;;;8.47;7.73;;;;;;;2.56;88.70;100121.81;5071430;28;20874;-77
2021/12/07 09:10:32;;;;;;;8.67;7.90;;;;;;;2.67;88.96;100116.75;5070953;28;20204;-76
2021/12/07 09:12:59;;;;;;;8.20;7.50;;;;;;;2.68;88.88;100109.91;5067602;28;20193;-76
2021/12/07 09:15:26;;;;;;;8.40;7.67;;;;;;;2.80;88.32;100107.41;5071170;28;20214;-77
2021/12/07 09:17:52;;;;;;;8.67;7.97;;;;;;;2.89;88.39;100110.03;5071318;28;20217;-77
2021/12/07 09:20:18;;;;;;;9.20;8.27;;;;;;;2.96;88.34;100121.25;5068390;28;20263;-77
2021/12/07 09:22:48;;;;;;;10.03;9.03;;;;;;;2.98;87.42;100151.34;5061294;28;20196;-77
2021/12/07 09:25:16;;;;;;;9.03;8.33;;;;;;;2.95;87.52;100171.09;5063632;28;20204;-77
2021/12/07 09:27:42;;;;;;;9.00;8.30;;;;;;;2.90;87.26;100186.53;5065782;28;20269;-77
2021/12/07 09:30:11;;;;;;;9.20;8.40;;;;;;;2.94;88.17;100171.94;5059700;28;20194;-77
2021/12/07 09:32:37;;;;;;;9.03;8.33;;;;;;;2.89;87.69;100168.47;5064378;28;20202;-76
2021/12/07 09:35:06;;;;;;;9.10;8.30;;;;;;;2.78;88.27;100151.19;5058710;28;20254;-76
2021/12/07 09:37:33;;;;;;;9.10;8.37;;;;;;;2.74;88.66;100157.19;5061467;28;20232;-76
2021/12/07 09:40:02;;;;;;;9.27;8.30;;;;;;;2.67;88.34;100147.66;5068752;28;20275;-76
2021/12/07 09:42:29;;;;;;;8.37;7.67;;;;;;;2.78;88.64;100140.03;5071170;28;20671;-76
2021/12/07 09:44:55;;;;;;;10.90;8.80;;;;;;;2.91;89.40;100121.22;5071787;28;20197;-77
2021/12/07 09:47:22;;;;;;;9.10;8.30;;;;;;;3.07;89.50;100114.47;5072022;28;20212;-77
2021/12/07 09:49:48;;;;;;;9.43;8.63;;;;;;;3.12;89.40;100106.75;5071263;28;20228;-77
2021/12/07 09:52:15;;;;;;;10.50;9.67;;;;;;;3.21;89.35;100105.94;5071411;28;20205;-77
2021/12/07 09:54:41;;;;;;;10.60;9.60;;;;;;;3.12;88.96;100123.09;5065886;28;20201;-77
2021/12/07 09:57:11;;;;;;;9.27;8.57;;;;;;;3.20;88.81;100117.97;5066306;28;20230;-77
2021/12/07 09:59:37;;;;;;;9.43;8.67;;;;;;;3.25;88.72;100120.56;5068221;28;20193;-77
2021/12/07 10:02:06;;;;;;;9.63;8.83;;;;;;;3.17;88.66;100129.13;5071832;28;20197;-77
2021/12/07 10:04:33;;;;;;;9.67;8.87;;;;;;;3.02;88.73;100143.66;5071951;28;20204;-77
2021/12/07 10:07:00;;;;;;;11.17;10.00;;;;;;;3.12;88.97;100130.81;5062461;28;20710;-78
2021/12/07 10:09:26;;;;;;;11.57;9.67;;;;;;;3.16;89.23;100126.56;5063343;28;20314;-77
2021/12/07 10:11:54;;;;;;;9.93;9.13;;;;;;;3.28;89.11;100120.59;5061938;28;20201;-77
2021/12/07 10:14:22;;;;;;;10.30;9.30;;;;;;;3.11;88.66;100134.25;5069112;28;20206;-77
2021/12/07 10:16:50;;;;;;;8.90;8.10;;;;;;;2.89;88.95;100128.06;5071434;28;20221;-77
2021/12/07 10:19:27;;;;;;;9.93;9.10;;;;;;;2.81;90.58;100092.78;5071329;28;20205;-76
2021/12/07 10:22:00;;;;;;;10.13;9.33;;;;;;;2.95;90.66;100067.97;5071217;28;20661;-77
2021/12/07 10:24:31;;;;;;;10.43;9.53;;;;;;;3.03;91.10;100053.41;5070160;28;20193;-76
2021/12/07 10:26:58;;;;;;;9.93;9.13;;;;;;;2.68;90.93;100071.25;5068993;28;20220;-76
2021/12/07 10:29:26;;;;;;;8.93;8.23;;;;;;;2.75;91.25;100054.94;5067215;28;20671;-76
2021/12/07 10:31:54;;;;;;;8.80;8.10;;;;;;;2.85;91.21;100043.00;5071130;28;20246;-77
2021/12/07 10:34:23;;;;;;;9.30;8.40;;;;;;;2.95;91.26;100044.75;5069359;28;20208;-77
2021/12/07 10:36:52;;;;;;;9.40;8.60;;;;;;;3.04;91.15;100051.69;5073338;28;20268;-77
2021/12/07 10:39:21;;;;;;;9.13;8.43;;;;;;;3.04;90.21;100074.91;5075586;28;20205;-77
2021/12/07 10:41:50;;;;;;;9.33;8.57;;;;;;;3.07;90.90;100078.38;5074918;28;20251;-77
2021/12/07 10:44:19;;;;;;;9.87;8.93;;;;;;;3.28;90.10;100074.16;5075217;28;20206;-78
2021/12/07 10:46:52;;;;;;;8.10;7.50;;;;;;;3.35;89.62;100084.53;5073827;28;20784;-76
2021/12/07 10:49:43;;;;;;;9.27;8.47;;;;;;;3.48;89.78;100087.16;5073483;28;20544;-76
2021/12/07 10:52:24;;;;;;;8.47;7.77;;;;;;;3.46;89.85;100089.72;5072190;28;20660;-77
2021/12/07 10:54:59;;;;;;;7.83;7.13;;;;;;;3.32;89.33;100110.28;5072109;28;20228;-76
2021/12/07 10:57:27;;;;;;;8.23;7.53;;;;;;;3.10;89.82;100101.59;5069398;28;20278;-76
2021/12/07 11:00:02;;;;;;;12.80;11.87;;;;;;;3.14;90.79;100077.53;5070899;28;20264;-76
2021/12/07 11:02:33;;;;;;;8.20;7.50;;;;;;;2.98;91.01;100057.69;5071767;28;20682;-77
2021/12/07 11:05:01;;;;;;;8.57;7.87;;;;;;;3.07;91.88;100038.81;5070335;28;20671;-75
2021/12/07 11:07:29;;;;;;;8.20;7.60;;;;;;;3.28;91.91;100032.91;5073210;28;20220;-76
2021/12/07 11:10:05;;;;;;;7.67;7.07;;;;;;;3.31;91.44;100027.75;5073160;28;20201;-75
2021/12/07 11:12:37;;;;;;;8.27;7.57;;;;;;;3.47;90.86;100028.66;5073077;28;20191;-76
2021/12/07 11:15:12;;;;;;;7.60;7.00;;;;;;;3.55;92.09;100012.34;5070882;28;20197;-76
2021/12/07 11:17:40;;;;;;;8.23;7.53;;;;;;;3.69;91.25;100017.56;5072812;28;20228;-76
2021/12/07 11:20:08;;;;;;;8.40;7.70;;;;;;;3.56;90.39;100052.78;5073117;28;20201;-76
2021/12/07 11:22:36;;;;;;;8.63;7.90;;;;;;;3.47;90.25;100072.50;5072632;28;20671;-76
2021/12/07 11:25:06;;;;;;;8.40;7.60;;;;;;;3.58;90.19;100070.84;5070943;28;20219;-76
2021/12/07 11:30:20;;;;;;;8.00;7.40;;;;;;;3.76;90.22;100062.31;5064577;28;20272;-76
2021/12/07 11:32:55;;;;;;;8.57;7.87;;;;;;;3.56;89.77;100082.88;5062883;28;20251;-76
2021/12/07 11:35:26;;;;;;;7.63;7.03;;;;;;;3.58;90.27;100078.59;5070508;28;20697;-75
2021/12/07 11:37:55;;;;;;;8.33;7.43;;;;;;;3.76;91.56;100046.81;5072880;28;20235;-77
2021/12/07 11:40:27;;;;;;;9.00;8.20;;;;;;;3.98;91.66;100034.81;5070170;28;20212;-76
2021/12/07 11:42:54;;;;;;;8.87;8.03;;;;;;;4.20;92.51;100027.06;5072524;28;20273;-76
2021/12/07 11:45:25;;;;;;;9.20;8.40;;;;;;;3.97;90.54;100093.34;5066176;28;20227;-77
2021/12/07 11:48:48;;;;;;;15.87;13.47;;;;;;;4.13;90.52;100093.38;5061350;28;20277;-78
2021/12/07 11:51:15;;;;;;;9.00;8.10;;;;;;;4.10;89.32;100132.09;5023676;28;20264;-77
2021/12/07 11:53:43;;;;;;;8.60;7.73;;;;;;;4.20;89.63;100120.91;5058303;28;20687;-77
2021/12/07 11:56:09;;;;;;;8.57;7.87;;;;;;;4.37;90.16;100110.63;5064061;28;20249;-77
2021/12/07 11:58:36;;;;;;;8.87;8.00;;;;;;;4.20;88.22;100159.66;5060825;28;20706;-77
2021/12/07 12:01:06;;;;;;;8.83;7.93;;;;;;;4.46;89.09;100120.09;5063389;28;20202;-77
2021/12/07 12:03:32;;;;;;;7.90;7.20;;;;;;;4.13;86.90;100201.84;5062764;28;20286;-77
2021/12/07 12:05:59;;;;;;;9.30;8.50;;;;;;;4.24;88.06;100182.09;5065142;28;20297;-76
2021/12/07 12:08:28;;;;;;;7.87;7.27;;;;;;;3.89;87.59;100198.31;5063905;28;20194;-75
2021/12/07 12:10:57;;;;;;;9.93;8.93;;;;;;;3.68;88.95;100159.50;5065501;28;20206;-76
2021/12/07 12:13:34;;;;;;;8.70;8.00;;;;;;;3.57;89.13;100146.56;5063907;28;20242;-76
2021/12/07 12:16:11;;;;;;;8.40;7.67;;;;;;;3.73;89.71;100129.41;5065044;28;20212;-76
2021/12/07 12:18:49;;;;;;;9.20;8.40;;;;;;;3.77;89.15;100144.06;5063597;28;20208;-77
2021/12/07 12:21:24;;;;;;;8.33;7.53;;;;;;;3.75;89.53;100140.63;5065946;28;20576;-76
2021/12/07 12:24:04;;;;;;;8.97;8.07;;;;;;;3.80;89.47;100140.63;5062917;28;20672;-75
2021/12/07 12:26:30;;;;;;;8.83;8.03;;;;;;;3.73;89.18;100148.34;5065332;28;20702;-76
2021/12/07 12:28:58;;;;;;;8.87;8.13;;;;;;;3.83;89.22;100145.81;5065792;28;20198;-76
2021/12/07 12:31:47;;;;;;;9.40;8.50;;;;;;;3.93;89.16;100130.34;5065431;28;20282;-76
2021/12/07 12:34:20;;;;;;;9.63;8.07;;;;;;;3.98;88.77;100141.56;5064482;28;20195;-76
2021/12/07 12:37:05;;;;;;;9.33;8.13;;;;;;;3.94;88.83;100149.28;5062407;28;20215;-78
2021/12/07 12:39:43;;;;;;;8.93;8.07;;;;;;;3.90;88.76;100158.72;5069384;28;20266;-76
2021/12/07 12:42:10;;;;;;;9.47;8.50;;;;;;;3.82;88.70;100157.84;5061864;28;20726;-76
2021/12/07 12:44:38;;;;;;;9.00;8.17;;;;;;;3.71;88.83;100151.78;5068606;28;20210;-77
2021/12/07 12:47:05;;;;;;;9.20;8.40;;;;;;;3.76;89.21;100129.41;5060735;28;20226;-77
2021/12/07 12:49:39;;;;;;;9.20;8.40;;;;;;;3.69;89.15;100131.13;5065974;28;20238;-76
2021/12/07 12:52:06;;;;;;;9.20;8.40;;;;;;;3.75;89.59;100120.81;5065454;28;20201;-75
2021/12/07 12:54:40;;;;;;;9.23;8.43;;;;;;;3.76;89.90;100119.09;5058883;28;20251;-77